Terminal Aerodrome Forecast
Issued by NWS

Home | Current Version | Previous Version | Text Only | Print | Product List | Glossary On
Versions: 1 2 3 4 5 6 7 8 9 10 11 12
000
FTUS46 KMTR 301700
TAFSNS
TAF
KSNS 301738Z 3018/3118 12005KT P6SM BKN150
     FM302100 28009KT P6SM BKN150
     FM310400 31004KT P6SM OVC030
     FM310700 13008KT P6SM OVC030 PROB30 3114/3118 -RA BKN020=

USA.gov is the U.S. government's official web portal to all federal, state and local government web resources and services.